East Falmouth, MA (02536)

5:06 AM EDT on September 05, 2015 (GMT -0400)
Falmouth Airpark Area | | Change Station
CLOSE
Current Station
Personal Weather Station
Location: East Falmouth, MA
Elevation: 50 ft
Nearby Weather Stations

Elev 50 ft 41.59 °N, 70.53 °W | Updated 6 minutes ago

Clear
Clear
52.7 °F
Feels Like 52.7 °F
N
0.0
Wind Variable Wind from East
Gusts 0.0 mph

Today
High -- | Low -- °F
--% Chance of Precip.
Yesterday
High -- | Low -- °F
Precip. -- in
6:12 AM 7:09 PM
Waning Gibbous, 50% visible
Pressure 30.24 in
Visibility 10.0 miles
Clouds Clear
Dew Point 52 °F
Humidity 98%
Rainfall 0.00 in
Snow Depth Not available.
UV 0 out of 12
Pollen 7.80 out of 12
Air Quality Not available.
Flu Activity Not available.
METAR KFMH 050855Z AUTO 00000KT 10SM CLR 11/11 A3024 RMK AO2 PWINO
Pressure 30.24 in
Visibility 10.0 miles
Clouds Clear
Dew Point 52 °F
Humidity 98%
Rainfall 0.00 in
Snow Depth Not available.
UV 0 out of 12
Pollen 7.80 out of 12
Air Quality Not available.
Flu Activity Not available.
METAR KFMH 050855Z AUTO 00000KT 10SM CLR 11/11 A3024 RMK AO2 PWINO

10-Day Weather Forecast

×

Almanac

Astronomy

Sep. 05, 2015 Rise Set
Actual Time
Civil Twilight
Nautical Twilight
Astronomical Twilight
Moon
Length of Visible Light
Length of Day
Tomorrow will be .
, % of the Moon is Illuminated

Today's Extremes

State Highs State Lows

Community

WunderPhotos

Upload Photos

1,852,440 photos uploaded!

WunderBlogs® & News

Nearby

Air Quality

  Air Quality AQ Index Pollutant
Not available.

Snow Depth

Station Depth Elevation

Earthquake Activity

City Distance Mag. Time & Date
Minimum magnitude displayed is 2.5.

Coastal Water Temperatures

Place Temperature

Stations

Nearby Weather Stations

Station Location Temp. Windchill Dew Point Humidity Wind Precip. Elev Updated Type